Time;durP1;ratioP1;P1;durP2;ratioP2;P2;SDS_P1;SDS_P2;PMS_P1;PMS_P2;Temp;Humidity;BMP_temperature;BMP_pressure;BME280_temperature;BME280_humidity;BME280_pressure;Samples;Min_cycle;Max_cycle;Signal;HPM_P1;HPM_P2
2021/06/28 00:01:05;;;;;;;1.33;1.30;;;;;;;18.28;84.73;96491.34;5072576;28;20048;-74
2021/06/28 00:03:32;;;;;;;1.88;1.20;;;;;;;18.29;84.75;96490.28;5073919;28;20040;-73
2021/06/28 00:05:59;;;;;;;1.10;1.00;;;;;;;18.26;84.61;96488.94;5069149;28;20392;-73
2021/06/28 00:08:27;;;;;;;1.05;1.05;;;;;;;18.25;84.87;96487.34;5073846;28;20048;-73
2021/06/28 00:10:53;;;;;;;2.42;1.15;;;;;;;18.22;85.06;96484.44;5073271;28;20043;-74
2021/06/28 00:13:20;;;;;;;1.75;1.08;;;;;;;18.24;85.14;96483.09;5073874;28;20044;-73
2021/06/28 00:15:46;;;;;;;2.08;1.45;;;;;;;18.26;85.58;96480.97;5073118;28;20055;-74
2021/06/28 00:18:14;;;;;;;1.48;1.10;;;;;;;18.29;85.56;96471.69;5073679;28;20040;-73
2021/06/28 00:20:42;;;;;;;1.15;1.08;;;;;;;18.27;85.24;96457.91;5073588;28;20063;-73
2021/06/28 00:23:09;;;;;;;2.67;1.20;;;;;;;18.23;85.75;96451.53;5073131;28;20036;-73
2021/06/28 00:25:37;;;;;;;1.05;1.05;;;;;;;18.24;85.88;96445.94;5073049;28;20049;-73
2021/06/28 00:28:07;;;;;;;1.50;1.38;;;;;;;18.23;86.13;96435.59;5072724;28;20401;-73
2021/06/28 00:30:41;;;;;;;1.98;1.42;;;;;;;18.22;86.18;96426.03;5073193;28;20044;-74
2021/06/28 00:33:10;;;;;;;1.30;1.20;;;;;;;18.22;86.24;96423.38;5073772;28;20055;-74
2021/06/28 00:35:37;;;;;;;1.20;1.05;;;;;;;18.22;86.38;96420.72;5073068;28;20469;-73
2021/06/28 00:38:04;;;;;;;1.40;1.30;;;;;;;18.26;86.58;96421.78;5073280;28;20032;-73
2021/06/28 00:40:31;;;;;;;1.30;1.20;;;;;;;18.30;86.54;96424.72;5073057;28;20056;-75
2021/06/28 00:42:57;;;;;;;2.00;1.40;;;;;;;18.32;86.47;96423.38;5071786;28;20036;-74
2021/06/28 00:45:29;;;;;;;1.30;1.30;;;;;;;18.29;86.33;96409.81;5072998;28;20032;-73
2021/06/28 00:48:02;;;;;;;1.10;1.10;;;;;;;18.24;86.43;96411.41;5073197;28;20045;-74
2021/06/28 00:50:30;;;;;;;1.10;1.10;;;;;;;18.25;86.40;96414.91;5073133;28;20036;-73
2021/06/28 00:53:00;;;;;;;1.30;1.20;;;;;;;18.27;86.48;96412.78;5072829;28;20048;-74
2021/06/28 00:55:27;;;;;;;1.35;1.17;;;;;;;18.27;86.23;96412.78;5059827;28;20052;-74
2021/06/28 00:57:54;;;;;;;1.35;1.25;;;;;;;18.29;86.31;96412.47;5072826;28;20048;-74
2021/06/28 01:00:21;;;;;;;1.38;1.20;;;;;;;18.29;86.07;96407.16;5072757;28;20511;-74
2021/06/28 01:02:47;;;;;;;1.20;1.10;;;;;;;18.27;85.99;96402.16;5072887;28;20043;-74
2021/06/28 01:05:20;;;;;;;1.15;1.08;;;;;;;18.25;85.88;96394.44;5073016;28;20039;-74
2021/06/28 01:07:47;;;;;;;1.80;1.20;;;;;;;18.25;86.09;96389.13;5072573;28;20044;-75
2021/06/28 01:10:15;;;;;;;1.10;1.10;;;;;;;18.28;86.27;96385.16;5072600;28;20111;-74
2021/06/28 01:12:43;;;;;;;1.45;1.30;;;;;;;18.28;86.13;96385.16;5073274;28;20043;-74
2021/06/28 01:15:10;;;;;;;1.75;0.98;;;;;;;18.28;86.08;96385.16;5073045;28;20051;-74
2021/06/28 01:17:37;;;;;;;1.17;1.17;;;;;;;18.29;85.81;96392.06;5072981;28;20040;-74
2021/06/28 01:20:22;;;;;;;1.38;1.27;;;;;;;18.27;86.43;96380.91;5072781;28;20048;-74
2021/06/28 01:22:49;;;;;;;;;;;;;;;18.23;86.96;96393.13;5071166;28;20047;-74
2021/06/28 01:25:18;;;;;;;1.85;1.10;;;;;;;18.22;86.07;96380.91;5072672;28;19916;-74
2021/06/28 01:27:45;;;;;;;1.30;1.20;;;;;;;18.21;86.24;96381.97;5073027;28;20051;-74
2021/06/28 01:30:15;;;;;;;2.70;1.10;;;;;;;18.22;86.38;96386.22;5071784;28;20033;-74
2021/06/28 01:32:44;;;;;;;1.40;1.30;;;;;;;18.20;86.51;96383.03;5072819;28;20028;-74
2021/06/28 01:35:12;;;;;;;1.45;1.35;;;;;;;18.21;86.74;96376.69;5072801;28;20037;-74
2021/06/28 01:37:39;;;;;;;1.13;1.13;;;;;;;18.20;86.89;96375.84;5073118;28;20047;-74
2021/06/28 01:40:08;;;;;;;1.55;1.45;;;;;;;18.21;86.75;96368.72;5073133;28;20424;-74
2021/06/28 01:42:38;;;;;;;1.05;1.05;;;;;;;18.19;86.88;96362.88;5072476;28;20392;-74
2021/06/28 01:45:08;;;;;;;1.92;1.40;;;;;;;18.19;87.08;96362.88;5072595;28;20033;-74
2021/06/28 01:47:34;;;;;;;1.30;1.20;;;;;;;18.19;87.09;96363.66;5072193;28;20037;-74
2021/06/28 01:50:00;;;;;;;1.10;1.10;;;;;;;18.16;87.27;96350.91;5072488;28;20036;-74
2021/06/28 01:52:28;;;;;;;1.42;1.10;;;;;;;18.17;87.28;96343.78;5072013;28;20107;-74
2021/06/28 01:54:54;;;;;;;1.33;1.23;;;;;;;18.16;87.30;96339.50;5072394;28;20047;-74
2021/06/28 01:57:20;;;;;;;2.13;1.30;;;;;;;18.15;87.50;96332.63;5071354;28;20059;-74
2021/06/28 01:59:46;;;;;;;1.50;1.40;;;;;;;18.13;87.52;96348.03;5070186;28;20404;-74
2021/06/28 02:02:13;;;;;;;1.48;1.25;;;;;;;18.11;87.63;96342.97;5072074;28;20059;-75
2021/06/28 02:04:39;;;;;;;1.73;1.13;;;;;;;18.10;87.75;96341.41;5070651;28;20051;-75
2021/06/28 02:07:07;;;;;;;2.05;1.20;;;;;;;18.10;88.21;96340.59;5075338;28;20191;-74
2021/06/28 02:09:35;;;;;;;3.95;1.20;;;;;;;18.09;88.23;96341.66;5075418;28;20412;-74
2021/06/28 02:12:02;;;;;;;1.33;1.23;;;;;;;18.10;88.36;96348.53;5075870;28;20485;-74
2021/06/28 02:14:29;;;;;;;1.73;1.40;;;;;;;18.10;88.48;96362.63;5075734;28;20033;-74
2021/06/28 02:16:56;;;;;;;1.48;1.27;;;;;;;18.09;88.46;96368.97;5075749;28;20044;-74
2021/06/28 02:19:22;;;;;;;1.30;1.20;;;;;;;18.07;88.71;96360.50;5075919;28;20453;-74
2021/06/28 02:21:49;;;;;;;1.13;1.13;;;;;;;18.07;89.00;96362.34;5074939;28;20056;-74
2021/06/28 02:24:15;;;;;;;1.33;1.05;;;;;;;18.04;88.73;96361.03;5076159;28;20052;-75
2021/06/28 02:26:43;;;;;;;1.30;1.30;;;;;;;18.04;88.90;96355.75;5074935;28;20041;-75
2021/06/28 02:29:10;;;;;;;1.50;1.40;;;;;;;18.02;88.78;96356.00;5074920;28;20500;-75
2021/06/28 02:31:36;;;;;;;3.13;1.38;;;;;;;18.01;89.33;96348.28;5075107;28;20056;-75
2021/06/28 02:34:03;;;;;;;1.20;1.15;;;;;;;18.00;89.57;96333.44;5075623;28;20036;-75
2021/06/28 02:36:29;;;;;;;1.40;1.30;;;;;;;17.99;89.51;96332.63;5074887;28;20049;-74
2021/06/28 02:38:57;;;;;;;1.30;1.20;;;;;;;17.99;89.68;96350.41;5075216;28;20036;-74
2021/06/28 02:41:24;;;;;;;2.10;1.40;;;;;;;17.98;89.46;96364.75;5075593;28;20047;-74
2021/06/28 02:44:10;;;;;;;1.55;1.33;;;;;;;17.97;89.40;96347.25;5034376;28;20047;-74
2021/06/28 02:46:36;;;;;;;2.72;1.35;;;;;;;17.98;89.66;96340.88;5075178;28;20048;-74
2021/06/28 02:49:03;;;;;;;1.17;1.17;;;;;;;17.97;89.73;96344.59;5075289;28;20053;-74
2021/06/28 02:51:31;;;;;;;1.10;1.10;;;;;;;17.97;89.49;96361.28;5074653;28;20378;-74
2021/06/28 02:53:57;;;;;;;1.10;1.10;;;;;;;17.96;89.41;96369.53;5074810;28;20040;-74
2021/06/28 02:56:24;;;;;;;1.60;1.50;;;;;;;17.93;89.62;96362.91;5074810;28;20044;-74
2021/06/28 02:58:57;;;;;;;1.15;1.15;;;;;;;17.89;89.74;96358.38;5075318;28;20044;-74
2021/06/28 03:01:34;;;;;;;1.48;1.38;;;;;;;17.90;89.81;96366.09;5090744;27;20385;-75
2021/06/28 03:04:11;;;;;;;1.23;1.17;;;;;;;17.91;89.79;96372.19;5090649;27;20909;-74
2021/06/28 03:06:49;;;;;;;1.85;1.35;;;;;;;17.90;89.69;96368.75;5111361;27;20184;-75
2021/06/28 03:09:26;;;;;;;1.55;1.45;;;;;;;17.82;89.67;96359.44;5070842;28;20379;-75
2021/06/28 03:12:03;;;;;;;1.30;1.20;;;;;;;17.75;89.66;96366.06;5111259;27;20376;-74
2021/06/28 03:14:40;;;;;;;1.77;1.50;;;;;;;17.73;90.24;96358.38;5070578;28;20759;-74
2021/06/28 03:17:17;;;;;;;1.27;1.20;;;;;;;17.74;90.43;96365.25;5106848;27;20760;-73
2021/06/28 03:19:54;;;;;;;1.50;1.40;;;;;;;17.70;90.47;96343.00;5070650;28;20379;-76
2021/06/28 03:22:30;;;;;;;2.17;1.90;;;;;;;17.59;90.91;96339.53;5131882;27;20375;-74
2021/06/28 03:25:11;;;;;;;1.60;1.50;;;;;;;17.52;91.49;96332.91;5110950;27;20123;-74
2021/06/28 03:27:48;;;;;;;1.48;1.48;;;;;;;17.51;91.91;96329.44;5131505;27;20379;-74
2021/06/28 03:30:25;;;;;;;2.00;1.80;;;;;;;17.54;92.05;96328.16;5090750;28;20385;-74
2021/06/28 03:33:02;;;;;;;1.92;1.58;;;;;;;17.58;92.46;96316.72;5070385;28;20393;-74
2021/06/28 03:35:38;;;;;;;2.28;1.48;;;;;;;17.59;92.47;96314.88;5131456;27;20375;-73
2021/06/28 03:38:15;;;;;;;4.25;1.67;;;;;;;17.60;92.41;96317.28;5070775;28;20386;-75
2021/06/28 03:40:51;;;;;;;1.70;1.60;;;;;;;17.64;92.62;96328.16;5070402;28;20897;-74
2021/06/28 03:43:28;;;;;;;1.80;1.70;;;;;;;17.65;92.66;96327.84;5090764;27;20384;-73
2021/06/28 03:46:05;;;;;;;1.85;1.75;;;;;;;17.62;92.66;96317.81;5099185;27;20377;-74
2021/06/28 03:48:41;;;;;;;2.97;1.70;;;;;;;17.57;92.68;96312.47;5131522;27;20728;-74
2021/06/28 03:51:18;;;;;;;1.60;1.38;;;;;;;17.56;92.87;96307.47;5070639;28;20379;-74
2021/06/28 03:53:56;;;;;;;1.65;1.40;;;;;;;17.56;93.23;96302.16;5111350;27;20128;-74
2021/06/28 03:56:33;;;;;;;1.65;1.55;;;;;;;17.60;93.29;96298.72;5070564;28;20383;-74
2021/06/28 03:59:09;;;;;;;1.42;1.33;;;;;;;17.65;93.28;96300.56;5070904;28;20390;-75
2021/06/28 04:01:47;;;;;;;2.00;1.83;;;;;;;17.66;92.96;96280.94;5077184;28;20333;-75
2021/06/28 04:04:26;;;;;;;1.60;1.50;;;;;;;17.63;92.77;96276.16;5090883;27;20382;-74
2021/06/28 04:07:02;;;;;;;2.58;1.67;;;;;;;17.64;93.18;96288.38;5090437;28;20404;-74
2021/06/28 04:09:41;;;;;;;1.85;1.52;;;;;;;17.67;93.30;96295.78;5090502;28;20369;-74
2021/06/28 04:12:19;;;;;;;1.40;1.30;;;;;;;17.70;93.07;96299.75;5090794;27;20374;-74
2021/06/28 04:14:55;;;;;;;1.60;1.50;;;;;;;17.70;93.15;96303.22;5090746;27;20382;-75
2021/06/28 04:17:32;;;;;;;1.58;1.40;;;;;;;17.72;93.24;96298.41;5070424;28;20383;-74
2021/06/28 04:20:10;;;;;;;1.75;1.38;;;;;;;17.73;92.96;96309.84;5091037;28;20739;-74
2021/06/28 04:22:47;;;;;;;1.73;1.60;;;;;;;17.74;93.25;96312.19;5090926;27;20374;-74
2021/06/28 04:25:25;;;;;;;1.98;1.52;;;;;;;17.75;92.89;96313.03;5110908;27;20395;-74
2021/06/28 04:28:04;;;;;;;3.92;1.35;;;;;;;17.81;92.83;96315.41;5111235;27;20125;-73
2021/06/28 04:30:42;;;;;;;1.77;1.20;;;;;;;17.94;92.99;96315.94;5111588;27;20125;-74
2021/06/28 04:33:20;;;;;;;1.45;1.17;;;;;;;18.08;92.58;96319.63;5131007;27;20175;-75
2021/06/28 04:35:59;;;;;;;2.08;1.50;;;;;;;18.23;92.00;96334.72;5111243;27;20121;-74
2021/06/28 04:38:37;;;;;;;1.52;1.40;;;;;;;18.34;91.42;96338.94;5111653;27;20120;-73
2021/06/28 04:41:15;;;;;;;1.80;1.20;;;;;;;18.45;90.92;96340.50;5070638;28;20383;-74
2021/06/28 04:43:53;;;;;;;1.33;1.20;;;;;;;18.58;90.27;96333.00;5110779;27;20336;-74
2021/06/28 04:46:31;;;;;;;1.20;1.10;;;;;;;18.78;90.07;96332.97;5121400;27;20233;-74
2021/06/28 04:49:09;;;;;;;1.40;1.30;;;;;;;18.96;88.94;96338.72;5110723;27;20133;-75
2021/06/28 04:51:48;;;;;;;1.40;1.30;;;;;;;19.00;87.97;96348.56;5117834;27;20674;-74
2021/06/28 04:54:26;;;;;;;2.67;1.45;;;;;;;19.02;87.71;96343.75;5110899;27;20227;-73
2021/06/28 04:57:04;;;;;;;1.35;1.20;;;;;;;19.04;87.13;96346.13;5131220;27;20599;-74
2021/06/28 04:59:42;;;;;;;1.25;1.15;;;;;;;19.08;87.07;96346.38;5111522;27;20156;-74
2021/06/28 05:02:20;;;;;;;1.30;1.20;;;;;;;19.27;87.09;96345.44;5111110;27;20565;-74
2021/06/28 05:04:59;;;;;;;2.35;1.58;;;;;;;19.58;86.56;96350.56;5131478;27;20172;-74
2021/06/28 05:07:50;;;;;;;1.90;1.25;;;;;;;19.66;84.78;96341.97;5071127;28;20381;-74
2021/06/28 05:10:26;;;;;;;2.50;1.33;;;;;;;19.58;83.82;96342.56;5070545;28;20389;-74
2021/06/28 05:13:03;;;;;;;1.50;1.40;;;;;;;19.48;83.92;96335.47;5070770;28;20924;-73
2021/06/28 05:15:40;;;;;;;2.60;1.70;;;;;;;19.33;83.45;96329.47;5106746;27;20423;-74
2021/06/28 05:18:18;;;;;;;2.00;1.70;;;;;;;19.20;84.05;96331.69;5111079;27;20113;-74
2021/06/28 05:20:57;;;;;;;1.33;1.23;;;;;;;19.14;84.10;96337.31;5111324;27;20125;-73
2021/06/28 05:23:35;;;;;;;1.45;1.30;;;;;;;19.09;84.25;96332.81;5118819;27;20187;-74
2021/06/28 05:26:13;;;;;;;1.35;1.25;;;;;;;19.20;84.94;96336.19;5090628;28;20117;-74
2021/06/28 05:28:51;;;;;;;1.60;1.50;;;;;;;19.38;84.77;96332.91;5111491;27;20132;-74
2021/06/28 05:31:27;;;;;;;1.80;1.38;;;;;;;19.56;83.85;96339.41;5047606;27;1990513;-74
2021/06/28 05:34:04;;;;;;;1.63;1.42;;;;;;;19.74;83.50;96322.00;5131561;27;20375;-73
2021/06/28 05:36:40;;;;;;;1.05;1.05;;;;;;;19.91;82.99;96316.28;5070334;28;20375;-75
2021/06/28 05:39:17;;;;;;;1.38;1.10;;;;;;;20.21;82.82;96328.47;5131812;27;20374;-74
2021/06/28 05:41:54;;;;;;;1.40;1.25;;;;;;;20.58;82.17;96323.56;5070946;28;20382;-75
2021/06/28 05:44:30;;;;;;;1.60;1.23;;;;;;;20.92;81.35;96322.63;5070529;28;20383;-75
2021/06/28 05:47:07;;;;;;;1.33;1.23;;;;;;;21.26;80.49;96319.75;5070523;28;20386;-74
2021/06/28 05:49:46;;;;;;;1.48;1.10;;;;;;;21.51;79.42;96315.94;5090654;28;20126;-74
2021/06/28 05:52:24;;;;;;;1.55;1.10;;;;;;;21.61;78.28;96315.78;5111379;27;20125;-74
2021/06/28 05:55:02;;;;;;;2.08;1.25;;;;;;;21.69;77.72;96314.28;5131487;27;20179;-74
2021/06/28 05:57:40;;;;;;;2.33;1.20;;;;;;;21.74;76.95;96318.78;5050484;28;20128;-74
2021/06/28 06:00:21;;;;;;;1.95;1.13;;;;;;;21.82;76.66;96320.78;5131627;27;20179;-73
2021/06/28 06:03:00;;;;;;;0.93;0.90;;;;;;;21.95;76.41;96317.34;5070620;28;20379;-74
2021/06/28 06:05:37;;;;;;;2.08;1.00;;;;;;;22.07;76.07;96309.66;5111028;27;20380;-74
2021/06/28 06:08:14;;;;;;;2.05;1.10;;;;;;;22.22;75.57;96313.13;5070816;28;20379;-74
2021/06/28 06:10:52;;;;;;;1.20;1.10;;;;;;;22.32;75.10;96314.81;5090982;28;20760;-74
2021/06/28 06:13:30;;;;;;;1.20;1.10;;;;;;;22.38;74.70;96314.44;5122613;27;20573;-74
2021/06/28 06:16:09;;;;;;;1.42;1.33;;;;;;;22.40;74.04;96316.81;5107501;27;20466;-73
2021/06/28 06:18:45;;;;;;;1.17;1.02;;;;;;;22.61;74.06;96317.97;5101710;27;20394;-74
2021/06/28 06:21:24;;;;;;;2.70;1.10;;;;;;;22.81;73.28;96308.75;5090807;28;20122;-74
2021/06/28 06:24:00;;;;;;;0.90;0.90;;;;;;;23.07;72.67;96311.69;5111457;27;20376;-74
2021/06/28 06:26:37;;;;;;;1.27;1.10;;;;;;;23.30;71.79;96311.72;5070326;28;20379;-75
2021/06/28 06:29:13;;;;;;;1.45;0.90;;;;;;;23.53;71.00;96322.47;5090837;28;20382;-75
2021/06/28 06:31:50;;;;;;;2.33;1.00;;;;;;;23.56;70.12;96319.97;5070756;28;20382;-75
2021/06/28 06:34:27;;;;;;;0.80;0.70;;;;;;;23.58;69.81;96314.28;5131955;27;20375;-75
2021/06/28 06:37:04;;;;;;;0.95;0.75;;;;;;;23.59;69.08;96314.00;5106144;27;20128;-74
2021/06/28 06:39:42;;;;;;;0.70;0.70;;;;;;;23.66;68.60;96316.22;5123292;27;20227;-75
2021/06/28 06:42:20;;;;;;;0.95;0.60;;;;;;;23.81;68.27;96312.41;5070682;28;20379;-74
2021/06/28 06:44:58;;;;;;;0.88;0.70;;;;;;;23.96;67.27;96312.06;5131863;27;20338;-74
2021/06/28 06:47:37;;;;;;;1.88;0.73;;;;;;;24.01;66.19;96316.47;5111009;27;20132;-75
2021/06/28 06:50:16;;;;;;;1.67;0.65;;;;;;;23.99;65.38;96321.34;5111268;27;20132;-74
2021/06/28 06:52:53;;;;;;;1.05;0.70;;;;;;;24.02;64.71;96328.75;5111444;27;20121;-73
2021/06/28 06:55:34;;;;;;;0.50;0.50;;;;;;;24.04;64.19;96322.03;5103297;27;20872;-74
2021/06/28 06:58:11;;;;;;;0.70;0.70;;;;;;;24.05;63.39;96333.53;5070943;28;20378;-74
2021/06/28 07:00:47;;;;;;;1.55;0.73;;;;;;;23.94;63.21;96333.00;5131749;27;20755;-74
2021/06/28 07:03:24;;;;;;;1.20;0.60;;;;;;;23.96;63.19;96321.94;5070984;28;20383;-74
2021/06/28 07:06:00;;;;;;;0.60;0.60;;;;;;;24.07;63.08;96332.13;5131733;27;20894;-74
2021/06/28 07:08:38;;;;;;;1.05;0.60;;;;;;;24.20;62.71;96332.34;5106307;27;20419;-74
2021/06/28 07:11:16;;;;;;;0.60;0.60;;;;;;;24.01;61.60;96337.91;5124933;27;20234;-74
2021/06/28 07:13:54;;;;;;;0.60;0.60;;;;;;;23.89;61.88;96341.13;5123404;27;20230;-74
2021/06/28 07:16:32;;;;;;;2.00;0.88;;;;;;;24.01;62.11;96332.56;5111066;27;20125;-75
2021/06/28 07:19:10;;;;;;;0.50;0.50;;;;;;;24.06;61.42;96333.19;5111092;27;20121;-75
2021/06/28 07:21:49;;;;;;;0.85;0.70;;;;;;;24.28;61.39;96339.63;5131677;27;20206;-74
2021/06/28 07:24:27;;;;;;;0.50;0.50;;;;;;;24.45;60.38;96338.91;5111395;27;20125;-74
2021/06/28 07:27:05;;;;;;;0.60;0.60;;;;;;;24.43;60.16;96336.53;5111044;27;20128;-74
2021/06/28 07:29:43;;;;;;;0.63;0.52;;;;;;;24.36;59.05;96338.88;5090711;28;20126;-74
2021/06/28 07:32:22;;;;;;;0.38;0.38;;;;;;;24.36;58.46;96344.22;5108999;27;20544;-74
2021/06/28 07:34:59;;;;;;;0.43;0.43;;;;;;;24.53;58.72;96338.19;5131845;27;20375;-74
2021/06/28 07:37:36;;;;;;;0.60;0.60;;;;;;;24.70;57.87;96340.13;5131538;27;20376;-74
2021/06/28 07:40:16;;;;;;;0.68;0.68;;;;;;;24.90;57.71;96344.91;5070482;28;20871;-74
2021/06/28 07:42:53;;;;;;;2.38;0.95;;;;;;;24.87;57.57;96342.06;5108403;27;20457;-75
2021/06/28 07:45:42;;;;;;;1.95;0.82;;;;;;;24.70;58.19;96343.59;5070448;28;20401;-74
2021/06/28 07:48:18;;;;;;;2.05;0.90;;;;;;;24.76;59.36;96352.28;5070941;28;20386;-74
2021/06/28 07:50:55;;;;;;;0.95;0.68;;;;;;;24.90;59.68;96354.81;5173235;27;20763;-74
2021/06/28 07:53:33;;;;;;;0.80;0.80;;;;;;;24.95;59.72;96354.69;5111388;27;20124;-74
2021/06/28 07:56:19;;;;;;;1.75;0.80;;;;;;;24.91;60.13;96361.78;5131727;27;20753;-75
2021/06/28 07:58:57;;;;;;;0.80;0.75;;;;;;;25.03;60.29;96361.97;5070582;28;20137;-74
2021/06/28 08:01:35;;;;;;;0.93;0.70;;;;;;;25.15;59.98;96360.56;5111163;27;20346;-74
2021/06/28 08:04:13;;;;;;;2.15;0.90;;;;;;;25.38;60.36;96355.88;5111213;27;20132;-74
2021/06/28 08:06:52;;;;;;;0.80;0.80;;;;;;;25.66;60.25;96345.56;5070655;28;20385;-74
2021/06/28 08:09:30;;;;;;;1.02;0.70;;;;;;;25.92;59.79;96346.38;5131666;27;20334;-74
2021/06/28 08:12:09;;;;;;;0.88;0.65;;;;;;;25.88;59.07;96342.72;5090888;27;20378;-74
2021/06/28 08:14:47;;;;;;;1.05;0.65;;;;;;;25.96;59.41;96338.47;5070672;28;20385;-75
2021/06/28 08:17:24;;;;;;;0.60;0.60;;;;;;;26.07;59.00;96334.31;5091372;27;20475;-75
2021/06/28 08:20:05;;;;;;;0.73;0.50;;;;;;;26.21;58.33;96342.19;5090875;28;20378;-74
2021/06/28 08:22:43;;;;;;;0.60;0.60;;;;;;;26.46;57.80;96329.75;5070682;28;20379;-74
2021/06/28 08:25:24;;;;;;;1.30;0.80;;;;;;;26.75;57.22;96322.03;5070640;28;20385;-75
2021/06/28 08:28:02;;;;;;;0.40;0.40;;;;;;;26.71;55.65;96311.94;5091184;28;20745;-74
2021/06/28 08:30:38;;;;;;;0.70;0.70;;;;;;;26.76;55.79;96305.59;5076755;27;1305758;-74
2021/06/28 08:33:16;;;;;;;0.40;0.40;;;;;;;26.77;55.44;96312.53;5070577;28;20389;-74
2021/06/28 08:35:55;;;;;;;0.47;0.47;;;;;;;26.81;55.49;96318.03;5111572;27;20129;-75
2021/06/28 08:38:32;;;;;;;0.50;0.50;;;;;;;26.84;55.00;96318.19;5129531;27;20164;-76
2021/06/28 08:41:15;;;;;;;2.28;0.60;;;;;;;26.89;54.68;96315.31;5071025;28;20379;-76
2021/06/28 08:43:53;;;;;;;0.50;0.50;;;;;;;27.00;53.97;96318.38;5107908;27;20450;-76
2021/06/28 08:46:31;;;;;;;0.93;0.50;;;;;;;27.10;53.69;96315.31;5132149;27;20120;-76
2021/06/28 08:49:10;;;;;;;0.40;0.40;;;;;;;27.24;53.09;96317.00;5122293;27;20179;-76
2021/06/28 08:51:48;;;;;;;0.60;0.60;;;;;;;27.30;52.29;96311.09;5111135;27;20125;-76
2021/06/28 08:54:26;;;;;;;0.50;0.50;;;;;;;27.37;52.19;96320.53;5130817;27;20176;-76
2021/06/28 08:57:05;;;;;;;0.50;0.50;;;;;;;27.42;51.74;96312.25;5111118;27;20453;-76
2021/06/28 08:59:41;;;;;;;0.63;0.63;;;;;;;27.51;51.53;96321.84;5091140;27;20733;-77
2021/06/28 09:02:20;;;;;;;0.70;0.60;;;;;;;27.61;51.01;96319.84;5131825;27;20568;-77
2021/06/28 09:05:02;;;;;;;0.40;0.40;;;;;;;27.72;49.16;96299.47;5090859;28;20757;-76
2021/06/28 09:07:39;;;;;;;0.63;0.52;;;;;;;27.82;50.29;96304.41;5071225;28;20371;-77
2021/06/28 09:10:34;;;;;;;0.30;0.30;;;;;;;27.87;48.77;96290.78;5070563;28;20379;-77
2021/06/28 09:13:12;;;;;;;0.50;0.50;;;;;;;27.91;49.91;96301.69;5070350;28;20401;-77
2021/06/28 09:15:52;;;;;;;0.50;0.50;;;;;;;27.80;49.91;96298.56;5091173;28;20378;-77
2021/06/28 09:18:30;;;;;;;0.68;0.68;;;;;;;27.66;50.07;96296.19;5091584;27;20942;-74
2021/06/28 09:21:08;;;;;;;0.65;0.50;;;;;;;27.60;50.34;96297.50;5070617;28;20378;-76
2021/06/28 09:23:44;;;;;;;0.43;0.43;;;;;;;27.67;50.54;96300.44;5070925;28;20751;-74
2021/06/28 09:26:28;;;;;;;1.00;0.60;;;;;;;27.72;50.05;96294.06;5107715;27;20416;-74
2021/06/28 09:29:08;;;;;;;1.27;0.60;;;;;;;27.79;49.67;96285.44;5131879;27;20378;-75
2021/06/28 09:31:46;;;;;;;0.65;0.60;;;;;;;27.85;49.62;96286.81;5131713;27;20378;-74
2021/06/28 09:34:25;;;;;;;0.60;0.60;;;;;;;27.96;49.55;96279.09;5111688;27;20342;-74
2021/06/28 09:37:04;;;;;;;0.50;0.50;;;;;;;28.13;49.74;96271.59;5129619;27;20179;-74
2021/06/28 09:39:44;;;;;;;0.88;0.73;;;;;;;28.32;49.73;96267.56;5131932;27;20112;-74
2021/06/28 09:42:22;;;;;;;0.70;0.60;;;;;;;28.47;49.66;96274.97;5070659;28;20371;-74
2021/06/28 09:45:03;;;;;;;0.40;0.40;;;;;;;28.54;49.05;96264.44;5070857;28;20379;-74
2021/06/28 09:47:40;;;;;;;0.60;0.60;;;;;;;28.48;48.97;96271.16;5111088;27;20834;-74
2021/06/28 09:50:21;;;;;;;0.98;0.73;;;;;;;28.49;48.71;96256.56;5131435;27;20120;-74
2021/06/28 09:53:26;;;;;;;1.80;0.60;;;;;;;28.47;48.06;96252.59;5104688;28;20889;-74
2021/06/28 09:56:38;;;;;;;0.65;0.65;;;;;;;28.46;48.13;96257.22;5194207;27;20889;-74
2021/06/28 09:59:39;;;;;;;0.82;0.60;;;;;;;28.52;48.11;96255.13;5194673;27;20398;-74
2021/06/28 10:02:37;;;;;;;0.73;0.70;;;;;;;28.64;47.78;96251.59;5110889;27;20389;-74
2021/06/28 10:05:42;;;;;;;1.02;0.75;;;;;;;28.79;47.45;96253.63;5111145;27;20486;-73
2021/06/28 10:08:50;;;;;;;0.90;0.65;;;;;;;28.94;46.76;96242.09;5051752;28;20433;-74
2021/06/28 10:11:45;;;;;;;0.80;0.60;;;;;;;29.10;45.71;96233.28;5091596;27;20468;-74
2021/06/28 10:14:45;;;;;;;0.88;0.50;;;;;;;29.21;45.29;96237.09;5145163;27;20432;-75
2021/06/28 10:17:42;;;;;;;0.45;0.40;;;;;;;29.09;43.37;96267.59;5089574;27;20867;-76
2021/06/28 10:20:41;;;;;;;2.15;0.60;;;;;;;29.17;42.68;96257.00;5152108;27;20534;-75
2021/06/28 10:23:35;;;;;;;0.50;0.50;;;;;;;29.23;42.38;96261.84;5080940;27;20401;-75
2021/06/28 10:26:35;;;;;;;1.55;0.68;;;;;;;29.29;43.09;96254.25;5146542;27;20430;-77
2021/06/28 10:29:36;;;;;;;0.50;0.50;;;;;;;29.30;42.91;96269.34;5112226;27;20411;-75
2021/06/28 10:32:45;;;;;;;1.02;0.35;;;;;;;29.37;42.51;96257.97;5111126;27;20384;-75
2021/06/28 10:35:41;;;;;;;1.73;0.43;;;;;;;29.32;41.51;96257.06;5111084;27;20444;-75
2021/06/28 10:38:52;;;;;;;0.98;0.80;;;;;;;29.54;42.39;96254.94;5194162;27;20413;-76
2021/06/28 10:41:52;;;;;;;0.63;0.50;;;;;;;29.82;41.97;96246.81;5092500;27;20759;-75
2021/06/28 10:44:50;;;;;;;0.38;0.35;;;;;;;30.08;42.25;96251.72;5104885;28;20387;-75
2021/06/28 10:47:30;;;;;;;0.68;0.40;;;;;;;30.13;41.18;96261.47;5109359;27;20419;-75
2021/06/28 10:50:09;;;;;;;1.48;0.60;;;;;;;30.14;40.19;96254.94;5070825;28;20381;-75
2021/06/28 10:53:00;;;;;;;0.88;0.50;;;;;;;30.35;40.60;96236.53;5090462;27;20401;-75
2021/06/28 10:55:45;;;;;;;0.52;0.40;;;;;;;30.53;40.21;96236.16;5090561;28;20060;-75
2021/06/28 10:58:31;;;;;;;1.88;0.60;;;;;;;30.45;40.01;96235.22;5090965;28;20055;-76
2021/06/28 11:01:17;;;;;;;1.08;0.60;;;;;;;30.41;40.48;96222.72;5090986;28;20051;-74
2021/06/28 11:04:28;;;;;;;1.58;0.47;;;;;;;30.42;39.48;96224.31;5090697;28;20059;-75
2021/06/28 11:07:17;;;;;;;1.55;0.70;;;;;;;30.47;40.00;96227.53;5093009;28;20048;-75
2021/06/28 11:10:03;;;;;;;0.60;0.50;;;;;;;30.42;39.84;96240.53;5091215;28;20043;-76
2021/06/28 11:12:54;;;;;;;0.60;0.60;;;;;;;30.05;39.32;96232.69;5094914;28;20040;-75
2021/06/28 11:15:39;;;;;;;0.60;0.60;;;;;;;30.03;39.83;96221.44;5092928;28;20093;-75
2021/06/28 11:18:30;;;;;;;;;;;;;;;30.14;41.80;96246.81;5090850;28;20063;-76
2021/06/28 11:21:38;;;;;;;0.50;0.50;;;;;;;30.46;40.57;96217.06;5090229;28;19912;-74
2021/06/28 11:24:11;;;;;;;0.80;0.65;;;;;;;30.72;39.95;96219.97;5089918;28;20063;-74
2021/06/28 11:27:20;;;;;;;0.52;0.52;;;;;;;30.94;42.08;96226.63;5091295;27;20400;-75
2021/06/28 11:30:22;;;;;;;1.20;1.15;;;;;;;30.95;40.60;96213.84;5112123;27;20742;-75
2021/06/28 11:33:53;;;;;;;1.20;1.10;;;;;;;30.67;41.42;96222.94;5059976;28;20397;-75
2021/06/28 11:36:23;;;;;;;1.50;1.30;;;;;;;30.59;41.40;96218.50;5055827;28;20059;-75
2021/06/28 11:38:51;;;;;;;2.92;2.40;;;;;;;30.71;41.42;96225.72;5055801;28;20048;-75
2021/06/28 11:41:30;;;;;;;1.60;1.50;;;;;;;30.80;41.96;96220.09;5119496;27;20468;-75
2021/06/28 11:44:27;;;;;;;2.17;0.60;;;;;;;30.70;41.48;96214.13;5131879;27;20128;-76
2021/06/28 11:47:44;;;;;;;0.80;0.80;;;;;;;30.81;41.45;96213.56;5106784;27;20811;-76
2021/06/28 11:50:39;;;;;;;0.70;0.70;;;;;;;30.90;41.27;96197.91;5194300;27;20441;-75
2021/06/28 11:53:35;;;;;;;2.13;2.03;;;;;;;30.94;40.98;96196.84;5110819;27;20422;-74
2021/06/28 11:56:44;;;;;;;4.03;2.53;;;;;;;31.00;41.87;96191.91;5113114;27;20394;-75
2021/06/28 11:59:41;;;;;;;2.40;2.30;;;;;;;30.96;41.72;96196.47;5091355;27;20445;-76
2021/06/28 12:02:35;;;;;;;2.75;2.55;;;;;;;30.93;42.36;96200.69;5091098;27;20431;-76
2021/06/28 12:05:27;;;;;;;3.25;3.05;;;;;;;31.07;42.12;96200.19;5096986;27;20384;-76
2021/06/28 12:08:23;;;;;;;1.30;1.20;;;;;;;31.14;41.64;96196.81;5131665;27;20370;-75
2021/06/28 12:11:21;;;;;;;1.80;0.70;;;;;;;31.16;41.78;96194.53;5091870;27;20430;-76
2021/06/28 12:14:41;;;;;;;1.90;1.80;;;;;;;31.06;41.61;96189.72;5112177;27;20433;-76
2021/06/28 12:17:37;;;;;;;1.20;1.10;;;;;;;31.08;42.25;96188.22;5194834;27;20807;-76
2021/06/28 12:20:36;;;;;;;1.15;0.90;;;;;;;31.23;42.13;96185.78;5091166;27;20403;-76
2021/06/28 12:23:30;;;;;;;1.52;1.20;;;;;;;31.35;41.76;96186.41;5091443;27;20406;-76
2021/06/28 12:26:22;;;;;;;2.40;2.20;;;;;;;31.31;42.02;96184.75;5132355;27;20124;-75
2021/06/28 12:29:26;;;;;;;1.23;1.00;;;;;;;31.21;41.06;96169.09;5090794;28;20384;-77